createdAt,value
2023-03-29T00:01:09.151Z,100917.34
2023-03-29T00:03:49.307Z,100914.84
2023-03-29T00:06:22.446Z,100914.02
2023-03-29T00:09:01.998Z,100912.36
2023-03-29T00:12:00.436Z,100909.29
2023-03-29T00:14:31.207Z,100914.17
2023-03-29T00:17:13.280Z,100912.16
2023-03-29T00:19:46.469Z,100920.17
2023-03-29T00:22:20.240Z,100919.73
2023-03-29T00:24:49.392Z,100918.67
2023-03-29T00:27:22.294Z,100920.16
2023-03-29T00:30:01.972Z,100920.03
2023-03-29T00:32:31.523Z,100920.33
2023-03-29T00:35:01.497Z,100921.80
2023-03-29T00:37:33.160Z,100923.38
2023-03-29T00:40:01.841Z,100921.19
2023-03-29T00:42:32.777Z,100921.52
2023-03-29T00:45:13.128Z,100921.05
2023-03-29T00:47:58.242Z,100917.61
2023-03-29T00:50:44.103Z,100917.81
2023-03-29T00:53:22.032Z,100910.85
2023-03-29T00:55:58.768Z,100911.13
2023-03-29T00:58:38.293Z,100903.20
2023-03-29T01:01:19.649Z,100898.64
2023-03-29T01:04:18.281Z,100897.23
2023-03-29T01:07:00.678Z,100893.07
2023-03-29T01:09:36.154Z,100890.15
2023-03-29T01:12:17.333Z,100892.56
2023-03-29T01:15:02.184Z,100890.73
2023-03-29T01:17:31.818Z,100886.38
2023-03-29T01:20:11.015Z,100883.81
2023-03-29T01:23:04.020Z,100880.28
2023-03-29T01:25:45.584Z,100877.92
2023-03-29T01:28:32.295Z,100868.70
2023-03-29T01:31:19.813Z,100867.27
2023-03-29T01:33:59.146Z,100864.08
2023-03-29T01:36:51.797Z,100864.51
2023-03-29T01:39:22.190Z,100868.88
2023-03-29T01:42:13.413Z,100863.61
2023-03-29T01:44:54.205Z,100861.25
2023-03-29T01:47:45.632Z,100856.70
2023-03-29T01:50:23.315Z,100856.73
2023-03-29T01:53:03.157Z,100861.45
2023-03-29T01:55:45.642Z,100860.27
2023-03-29T01:58:20.413Z,100858.67
2023-03-29T02:00:54.302Z,100856.81
2023-03-29T02:03:42.493Z,100860.02
2023-03-29T02:06:14.831Z,100863.37
2023-03-29T02:08:50.056Z,100861.83
2023-03-29T02:11:26.233Z,100861.40
2023-03-29T02:14:19.448Z,100864.83
2023-03-29T02:16:50.936Z,100866.44
2023-03-29T02:19:30.570Z,100865.08
2023-03-29T02:22:10.122Z,100861.80
2023-03-29T02:24:51.293Z,100857.41
2023-03-29T02:27:22.145Z,100854.34
2023-03-29T02:29:50.824Z,100850.77
2023-03-29T02:32:36.002Z,100847.59
2023-03-29T02:35:26.906Z,100845.72
2023-03-29T02:37:58.038Z,100843.66
2023-03-29T02:40:33.708Z,100840.67
2023-03-29T02:43:04.013Z,100839.95
2023-03-29T02:45:33.742Z,100839.25
2023-03-29T02:48:10.434Z,100836.52
2023-03-29T02:50:42.995Z,100834.26
2023-03-29T02:53:44.979Z,100830.90
2023-03-29T02:56:18.755Z,100829.63
2023-03-29T02:58:50.628Z,100828.52
2023-03-29T03:01:26.507Z,100823.54
2023-03-29T03:03:58.352Z,100821.00
2023-03-29T03:06:27.745Z,100816.73
2023-03-29T03:09:02.370Z,100813.33
2023-03-29T03:11:43.745Z,100811.19
2023-03-29T03:14:19.296Z,100810.63
2023-03-29T03:16:52.984Z,100803.85
2023-03-29T03:19:28.038Z,100800.42
2023-03-29T03:21:59.055Z,100801.41
2023-03-29T03:24:34.722Z,100798.89
2023-03-29T03:27:08.684Z,100795.69
2023-03-29T03:29:47.701Z,100795.19
2023-03-29T03:32:20.833Z,100789.47
2023-03-29T03:35:20.052Z,100781.32
2023-03-29T03:37:53.962Z,100778.25
2023-03-29T03:40:30.396Z,100774.98
2023-03-29T03:43:02.090Z,100774.66
2023-03-29T03:45:38.842Z,100773.80
2023-03-29T03:48:28.485Z,100769.19
2023-03-29T03:51:05.411Z,100770.11
2023-03-29T03:53:43.107Z,100767.32
2023-03-29T03:56:20.810Z,100763.84
2023-03-29T03:59:33.015Z,100768.63
2023-03-29T04:02:13.501Z,100769.83
2023-03-29T04:05:03.248Z,100765.86
2023-03-29T04:07:39.508Z,100767.87
2023-03-29T04:10:53.455Z,100766.65
2023-03-29T04:13:33.115Z,100764.41
2023-03-29T04:16:43.136Z,100767.91
2023-03-29T04:19:44.823Z,100765.52
2023-03-29T04:22:27.179Z,100766.38
2023-03-29T04:25:00.838Z,100767.36
2023-03-29T04:27:58.595Z,100766.36
2023-03-29T04:30:49.186Z,100766.08
2023-03-29T04:33:47.889Z,100767.80
2023-03-29T04:36:27.740Z,100766.09
2023-03-29T04:39:01.954Z,100766.59
2023-03-29T04:42:11.691Z,100768.60
2023-03-29T04:44:49.154Z,100766.85
2023-03-29T04:47:30.125Z,100768.36
2023-03-29T04:50:05.419Z,100767.13
2023-03-29T04:52:51.123Z,100763.44
2023-03-29T04:55:35.793Z,100764.26
2023-03-29T04:58:25.198Z,100762.36
2023-03-29T05:01:25.807Z,100757.75
2023-03-29T05:04:19.274Z,100754.93
2023-03-29T05:07:15.590Z,100752.73
2023-03-29T05:09:50.091Z,100747.75
2023-03-29T05:12:27.996Z,100750.08
2023-03-29T05:15:10.829Z,100751.17
2023-03-29T05:17:45.877Z,100746.75
2023-03-29T05:20:29.776Z,100749.15
2023-03-29T05:23:27.143Z,100743.56
2023-03-29T05:26:26.659Z,100742.07
2023-03-29T05:29:07.105Z,100740.34
2023-03-29T05:31:45.762Z,100740.02
2023-03-29T05:34:22.917Z,100746.17
2023-03-29T05:37:06.588Z,100741.01
2023-03-29T05:40:08.203Z,100744.92
2023-03-29T05:43:18.470Z,100740.13
2023-03-29T05:46:12.554Z,100736.05
2023-03-29T05:49:18.813Z,100733.72
2023-03-29T05:52:21.716Z,100729.25
2023-03-29T05:55:15.170Z,100729.00
2023-03-29T05:58:12.434Z,100723.46
2023-03-29T06:02:11.902Z,100719.64
2023-03-29T06:04:57.780Z,100720.27
2023-03-29T06:07:43.215Z,100720.70
2023-03-29T06:11:10.256Z,100721.79
2023-03-29T06:14:27.917Z,100711.79
2023-03-29T06:17:18.758Z,100706.27
2023-03-29T06:20:14.535Z,100706.16
2023-03-29T06:23:14.339Z,100706.79
2023-03-29T06:25:52.766Z,100704.23
2023-03-29T06:28:22.025Z,100698.92
2023-03-29T06:30:51.196Z,100708.77
2023-03-29T06:33:20.866Z,100710.88
2023-03-29T06:36:14.130Z,100712.73
2023-03-29T06:38:45.788Z,100709.88
2023-03-29T06:41:30.876Z,100709.33
2023-03-29T06:44:09.157Z,100708.55
2023-03-29T06:46:44.877Z,100711.88
2023-03-29T06:49:16.985Z,100711.58
2023-03-29T06:52:00.510Z,100716.83
2023-03-29T06:54:29.294Z,100714.14
2023-03-29T06:57:03.068Z,100713.16
2023-03-29T06:59:36.214Z,100706.73
2023-03-29T07:02:26.575Z,100707.02
2023-03-29T07:05:01.630Z,100707.45
2023-03-29T07:08:11.770Z,100708.64
2023-03-29T07:10:53.624Z,100710.39
2023-03-29T07:13:49.354Z,100709.29
2023-03-29T07:16:24.317Z,100709.27
2023-03-29T07:19:05.406Z,100707.75
2023-03-29T07:22:02.152Z,100705.29
2023-03-29T07:24:42.205Z,100702.58
2023-03-29T07:27:14.535Z,100699.05
2023-03-29T07:29:56.513Z,100701.85
2023-03-29T07:32:41.142Z,100701.48
2023-03-29T07:35:21.608Z,100699.55
2023-03-29T07:37:51.780Z,100697.93
2023-03-29T07:40:29.948Z,100694.27
2023-03-29T07:43:09.382Z,100696.86
2023-03-29T07:45:45.363Z,100697.82
2023-03-29T07:48:20.549Z,100691.31
2023-03-29T07:51:01.002Z,100689.38
2023-03-29T07:53:42.725Z,100687.33
2023-03-29T07:56:37.656Z,100687.11
2023-03-29T07:59:25.268Z,100684.66
2023-03-29T08:02:02.046Z,100686.08
2023-03-29T08:04:35.178Z,100678.04
2023-03-29T08:07:33.389Z,100680.77
2023-03-29T08:10:40.587Z,100675.88
2023-03-29T08:13:22.691Z,100677.06
2023-03-29T08:16:14.670Z,100676.98
2023-03-29T08:18:51.800Z,100677.79
2023-03-29T08:21:30.626Z,100679.30
2023-03-29T08:24:03.089Z,100677.64
2023-03-29T08:26:47.241Z,100677.59
2023-03-29T08:29:22.713Z,100675.91
2023-03-29T08:31:54.649Z,100674.49
2023-03-29T08:34:29.177Z,100671.61
2023-03-29T08:37:18.655Z,100666.79
2023-03-29T08:39:52.254Z,100662.52
2023-03-29T08:43:07.915Z,100662.96
2023-03-29T08:46:14.788Z,100659.69
2023-03-29T08:49:00.698Z,100660.25
2023-03-29T08:51:42.816Z,100657.30
2023-03-29T08:54:22.334Z,100653.22
2023-03-29T08:57:49.213Z,100648.30
2023-03-29T09:00:35.950Z,100648.15
2023-03-29T09:03:24.498Z,100645.95
2023-03-29T09:06:19.971Z,100643.64
2023-03-29T09:08:51.916Z,100642.63
2023-03-29T09:11:24.404Z,100641.19
2023-03-29T09:14:21.779Z,100631.55
2023-03-29T09:17:10.922Z,100628.57
2023-03-29T09:19:54.492Z,100626.88
2023-03-29T09:23:03.493Z,100629.35
2023-03-29T09:26:00.966Z,100628.75
2023-03-29T09:28:49.013Z,100625.83
2023-03-29T09:31:27.276Z,100624.25
2023-03-29T09:34:04.109Z,100624.85
2023-03-29T09:37:21.842Z,100617.34
2023-03-29T09:39:53.684Z,100614.36
2023-03-29T09:42:30.091Z,100615.42
2023-03-29T09:45:09.050Z,100613.08
2023-03-29T09:48:12.840Z,100613.64
2023-03-29T09:50:49.019Z,100610.41
2023-03-29T09:53:19.942Z,100609.47
2023-03-29T09:56:02.436Z,100612.29
2023-03-29T09:58:53.722Z,100607.17
2023-03-29T10:01:27.263Z,100605.83
2023-03-29T10:03:58.038Z,100603.02
2023-03-29T10:06:27.767Z,100598.52
2023-03-29T10:09:02.499Z,100596.58
2023-03-29T10:12:08.143Z,100593.66
2023-03-29T10:15:00.601Z,100586.77
2023-03-29T10:17:33.611Z,100578.39
2023-03-29T10:20:14.594Z,100572.05
2023-03-29T10:22:56.091Z,100571.76
2023-03-29T10:25:35.051Z,100569.73
2023-03-29T10:28:10.510Z,100570.95
2023-03-29T10:30:40.456Z,100565.80
2023-03-29T10:33:27.892Z,100562.39
2023-03-29T10:36:03.830Z,100562.11
2023-03-29T10:38:36.662Z,100562.16
2023-03-29T10:41:16.067Z,100557.30
2023-03-29T10:43:52.042Z,100560.65
2023-03-29T10:46:47.712Z,100555.27
2023-03-29T10:49:20.296Z,100552.80
2023-03-29T10:51:54.606Z,100551.92
2023-03-29T10:54:27.366Z,100553.48
2023-03-29T10:57:01.882Z,100548.20
2023-03-29T10:59:49.722Z,100542.05
2023-03-29T11:02:49.556Z,100540.45
2023-03-29T11:05:25.794Z,100537.69
2023-03-29T11:08:26.175Z,100535.33
2023-03-29T11:11:14.696Z,100535.55
2023-03-29T11:14:14.716Z,100526.45
2023-03-29T11:17:18.351Z,100519.09
2023-03-29T11:20:49.245Z,100510.46
2023-03-29T11:23:26.353Z,100505.45
2023-03-29T11:26:17.648Z,100499.17
2023-03-29T11:29:38.565Z,100492.91
2023-03-29T11:32:14.334Z,100493.14
2023-03-29T11:35:03.811Z,100488.59
2023-03-29T11:41:53.561Z,100474.17
2023-03-29T11:44:35.641Z,100471.09
2023-03-29T11:47:22.453Z,100462.77
2023-03-29T11:50:09.244Z,100463.94
2023-03-29T11:52:49.652Z,100462.36
2023-03-29T11:55:33.339Z,100462.36
2023-03-29T11:58:19.611Z,100458.17
2023-03-29T12:00:56.409Z,100458.63
2023-03-29T12:03:43.596Z,100452.68
2023-03-29T12:10:13.775Z,100444.71
2023-03-29T12:12:49.654Z,100440.35
2023-03-29T12:15:25.053Z,100436.66
2023-03-29T12:18:12.526Z,100434.52
2023-03-29T12:20:42.315Z,100431.08
2023-03-29T12:23:18.082Z,100437.42
2023-03-29T12:26:17.238Z,100434.77
2023-03-29T12:28:57.021Z,100433.05
2023-03-29T12:31:39.925Z,100429.89
2023-03-29T12:34:42.400Z,100421.38
2023-03-29T12:38:05.689Z,100419.40
2023-03-29T12:41:02.322Z,100416.92
2023-03-29T12:43:54.990Z,100411.36
2023-03-29T12:46:40.562Z,100410.59
2023-03-29T12:49:39.254Z,100410.66
2023-03-29T12:52:32.178Z,100402.31
2023-03-29T12:55:05.413Z,100398.39
2023-03-29T12:58:09.925Z,100395.55
2023-03-29T13:00:42.584Z,100399.09
2023-03-29T13:03:40.589Z,100395.90
2023-03-29T13:06:13.458Z,100400.00
2023-03-29T13:08:45.417Z,100401.87
2023-03-29T13:11:41.035Z,100400.70
2023-03-29T13:14:21.415Z,100400.39
2023-03-29T13:16:54.318Z,100397.97
2023-03-29T13:19:45.196Z,100396.80
2023-03-29T13:22:23.854Z,100393.67
2023-03-29T13:25:15.756Z,100395.48
2023-03-29T13:27:54.672Z,100392.03
2023-03-29T13:30:29.302Z,100394.19
2023-03-29T13:33:38.439Z,100394.17
2023-03-29T13:36:24.488Z,100396.26
2023-03-29T13:38:55.758Z,100393.89
2023-03-29T13:41:33.621Z,100384.88
2023-03-29T13:44:03.384Z,100381.67
2023-03-29T13:46:43.181Z,100375.58
2023-03-29T13:49:23.479Z,100376.34
2023-03-29T13:51:55.252Z,100372.39
2023-03-29T13:54:36.115Z,100367.70
2023-03-29T13:57:20.824Z,100368.58
2023-03-29T13:59:58.310Z,100367.29
2023-03-29T14:02:44.422Z,100359.80
2023-03-29T14:05:19.607Z,100354.59
2023-03-29T14:07:53.197Z,100356.16
2023-03-29T14:10:27.557Z,100355.98
2023-03-29T14:13:03.223Z,100352.90
2023-03-29T14:16:03.177Z,100357.54
2023-03-29T14:18:38.797Z,100366.40
2023-03-29T14:21:13.324Z,100368.64
2023-03-29T14:23:46.940Z,100367.83
2023-03-29T14:26:21.728Z,100363.23
2023-03-29T14:29:05.732Z,100363.47
2023-03-29T14:31:39.132Z,100364.88
2023-03-29T14:34:19.421Z,100359.08
2023-03-29T14:36:50.350Z,100355.41
2023-03-29T14:39:24.583Z,100352.77
2023-03-29T14:42:05.265Z,100346.81
2023-03-29T14:44:47.114Z,100336.32
2023-03-29T14:47:29.109Z,100337.13
2023-03-29T14:50:02.618Z,100332.52
2023-03-29T14:52:32.946Z,100324.67
2023-03-29T14:55:06.451Z,100320.42
2023-03-29T14:57:38.926Z,100326.80
2023-03-29T15:00:18.537Z,100325.25
2023-03-29T15:03:05.252Z,100325.20
2023-03-29T15:05:44.327Z,100327.55
2023-03-29T15:08:28.246Z,100326.84
2023-03-29T15:10:57.852Z,100318.06
2023-03-29T15:13:27.943Z,100322.89
2023-03-29T15:16:01.830Z,100323.63
2023-03-29T15:18:40.289Z,100316.45
2023-03-29T15:21:13.909Z,100317.58
2023-03-29T15:23:51.925Z,100324.23
2023-03-29T15:26:30.420Z,100324.02
2023-03-29T15:29:10.371Z,100324.00
2023-03-29T15:31:54.353Z,100319.75
2023-03-29T15:34:36.610Z,100320.98
2023-03-29T15:37:13.258Z,100325.70
2023-03-29T15:39:44.832Z,100331.70
2023-03-29T15:42:14.837Z,100332.60
2023-03-29T15:44:47.531Z,100326.09
2023-03-29T15:47:17.332Z,100325.83
2023-03-29T15:49:48.172Z,100322.56
2023-03-29T15:52:21.014Z,100319.73
2023-03-29T15:54:53.735Z,100316.77
2023-03-29T15:57:24.596Z,100322.61
2023-03-29T15:59:58.134Z,100326.39
2023-03-29T16:02:30.444Z,100327.75
2023-03-29T16:05:03.871Z,100333.80
2023-03-29T16:07:37.050Z,100330.19
2023-03-29T16:10:10.677Z,100323.27
2023-03-29T16:12:41.361Z,100322.02
2023-03-29T16:15:21.576Z,100318.67
2023-03-29T16:17:56.879Z,100314.35
2023-03-29T16:20:29.796Z,100315.15
2023-03-29T16:23:00.724Z,100317.39
2023-03-29T16:25:31.215Z,100322.48
2023-03-29T16:28:00.544Z,100321.74
2023-03-29T16:30:32.200Z,100325.64
2023-03-29T16:33:06.809Z,100316.95
2023-03-29T16:35:42.881Z,100311.67
2023-03-29T16:38:17.493Z,100311.19
2023-03-29T16:40:55.678Z,100312.61
2023-03-29T16:43:29.257Z,100312.26
2023-03-29T16:46:07.926Z,100312.23
2023-03-29T16:48:43.185Z,100307.36
2023-03-29T16:51:16.049Z,100310.20
2023-03-29T16:53:48.176Z,100306.27
2023-03-29T16:56:18.901Z,100300.95
2023-03-29T16:58:51.153Z,100307.47
2023-03-29T17:01:28.742Z,100303.32
2023-03-29T17:04:02.516Z,100301.42
2023-03-29T17:06:33.336Z,100300.39
2023-03-29T17:09:10.360Z,100295.02
2023-03-29T17:11:51.442Z,100294.09
2023-03-29T17:14:29.200Z,100288.52
2023-03-29T17:17:03.031Z,100289.13
2023-03-29T17:19:33.790Z,100290.36
2023-03-29T17:22:10.289Z,100286.70
2023-03-29T17:24:44.111Z,100282.03
2023-03-29T17:27:19.655Z,100282.98
2023-03-29T17:30:02.153Z,100280.20
2023-03-29T17:32:31.636Z,100280.83
2023-03-29T17:35:04.660Z,100281.77
2023-03-29T17:37:34.381Z,100282.56
2023-03-29T17:40:12.773Z,100279.63
2023-03-29T17:42:55.202Z,100282.11
2023-03-29T17:45:30.843Z,100287.62
2023-03-29T17:48:06.050Z,100287.20
2023-03-29T17:50:36.343Z,100289.55
2023-03-29T17:53:10.740Z,100293.77
2023-03-29T17:55:44.147Z,100291.45
2023-03-29T17:58:16.913Z,100293.34
2023-03-29T18:00:50.127Z,100293.47
2023-03-29T18:03:26.931Z,100294.27
2023-03-29T18:05:59.047Z,100301.38
2023-03-29T18:08:34.303Z,100303.52
2023-03-29T18:11:22.324Z,100298.58
2023-03-29T18:14:00.200Z,100298.64
2023-03-29T18:16:32.470Z,100297.80
2023-03-29T18:19:11.018Z,100300.63
2023-03-29T18:21:48.330Z,100299.40
2023-03-29T18:24:34.337Z,100303.92
2023-03-29T18:27:26.353Z,100302.92
2023-03-29T18:29:56.088Z,100305.16
2023-03-29T18:32:57.999Z,100309.35
2023-03-29T18:35:35.885Z,100304.95
2023-03-29T18:38:17.604Z,100304.59
2023-03-29T18:41:18.386Z,100303.42
2023-03-29T18:44:01.453Z,100306.20
2023-03-29T18:46:38.602Z,100304.89
2023-03-29T18:49:23.950Z,100298.05
2023-03-29T18:52:05.991Z,100290.38
2023-03-29T18:55:04.121Z,100297.33
2023-03-29T18:57:42.755Z,100294.98
2023-03-29T19:00:29.137Z,100298.42
2023-03-29T19:03:02.691Z,100295.45
2023-03-29T19:05:38.013Z,100293.76
2023-03-29T19:08:13.026Z,100290.69
2023-03-29T19:10:57.481Z,100292.65
2023-03-29T19:13:34.725Z,100288.35
2023-03-29T19:16:29.699Z,100288.73
2023-03-29T19:19:12.795Z,100292.23
2023-03-29T19:22:00.563Z,100291.05
2023-03-29T19:24:31.348Z,100289.67
2023-03-29T19:27:10.211Z,100289.11
2023-03-29T19:29:48.344Z,100285.95
2023-03-29T19:32:33.743Z,100281.40
2023-03-29T19:35:06.277Z,100277.45
2023-03-29T19:37:35.642Z,100276.40
2023-03-29T19:40:11.559Z,100277.23
2023-03-29T19:42:43.777Z,100278.53
2023-03-29T19:45:20.021Z,100273.05
2023-03-29T19:48:07.470Z,100271.25
2023-03-29T19:50:41.011Z,100269.35
2023-03-29T19:53:15.480Z,100267.55
2023-03-29T19:55:50.644Z,100266.02
2023-03-29T19:58:57.165Z,100262.78
2023-03-29T20:01:35.543Z,100262.55
2023-03-29T20:04:09.447Z,100263.85
2023-03-29T20:06:52.856Z,100255.55
2023-03-29T20:09:28.902Z,100253.35
2023-03-29T20:11:59.246Z,100248.46
2023-03-29T20:14:29.174Z,100246.45
2023-03-29T20:17:25.988Z,100242.77
2023-03-29T20:20:09.129Z,100244.92
2023-03-29T20:22:58.662Z,100250.63
2023-03-29T20:25:29.557Z,100251.75
2023-03-29T20:27:59.969Z,100252.45
2023-03-29T20:30:32.637Z,100249.00
2023-03-29T20:33:23.356Z,100245.71
2023-03-29T20:36:03.120Z,100244.10
2023-03-29T20:38:43.655Z,100245.92
2023-03-29T20:41:25.949Z,100241.59
2023-03-29T20:44:00.880Z,100241.49
2023-03-29T20:46:54.810Z,100239.21
2023-03-29T20:49:27.794Z,100236.84
2023-03-29T20:52:00.345Z,100233.58
2023-03-29T20:54:29.980Z,100229.77
2023-03-29T20:57:03.003Z,100222.27
2023-03-29T20:59:38.304Z,100222.40
2023-03-29T21:02:11.714Z,100216.09
2023-03-29T21:05:15.507Z,100214.68
2023-03-29T21:07:57.177Z,100214.06
2023-03-29T21:10:49.191Z,100210.52
2023-03-29T21:13:22.910Z,100208.73
2023-03-29T21:15:58.385Z,100206.83
2023-03-29T21:18:35.244Z,100193.86
2023-03-29T21:21:16.468Z,100190.41
2023-03-29T21:23:57.278Z,100185.40
2023-03-29T21:26:36.307Z,100184.59
2023-03-29T21:29:20.871Z,100176.80
2023-03-29T21:32:09.205Z,100174.55
2023-03-29T21:34:53.161Z,100175.91
2023-03-29T21:37:32.898Z,100171.79
2023-03-29T21:40:16.965Z,100177.95
2023-03-29T21:42:57.750Z,100177.20
2023-03-29T21:45:32.442Z,100170.41
2023-03-29T21:48:08.957Z,100174.71
2023-03-29T21:50:45.589Z,100167.37
2023-03-29T21:53:23.282Z,100161.15
2023-03-29T21:56:23.307Z,100155.52
2023-03-29T21:59:04.997Z,100154.88
2023-03-29T22:01:48.244Z,100149.52
2023-03-29T22:04:29.550Z,100148.57
2023-03-29T22:07:22.004Z,100143.58
2023-03-29T22:10:16.955Z,100139.20
2023-03-29T22:13:00.386Z,100138.80
2023-03-29T22:15:43.107Z,100138.64
2023-03-29T22:18:25.409Z,100132.90
2023-03-29T22:21:00.184Z,100133.38
2023-03-29T22:23:47.583Z,100125.31
2023-03-29T22:26:27.873Z,100123.34
2023-03-29T22:29:06.279Z,100125.88
2023-03-29T22:31:52.777Z,100124.25
2023-03-29T22:34:34.737Z,100123.48
2023-03-29T22:37:06.994Z,100126.20
2023-03-29T22:39:46.860Z,100123.89
2023-03-29T22:42:39.481Z,100119.38
2023-03-29T22:45:14.436Z,100122.13
2023-03-29T22:47:46.550Z,100116.98
2023-03-29T22:50:15.902Z,100115.66
2023-03-29T22:52:54.611Z,100115.95
2023-03-29T22:55:27.373Z,100110.48
2023-03-29T22:58:08.883Z,100104.77
2023-03-29T23:00:54.281Z,100103.59
2023-03-29T23:03:28.457Z,100102.67
2023-03-29T23:06:02.697Z,100100.76
2023-03-29T23:08:42.034Z,100091.96
2023-03-29T23:11:30.885Z,100087.98
2023-03-29T23:14:14.624Z,100085.84
2023-03-29T23:16:52.029Z,100086.52
2023-03-29T23:19:38.304Z,100085.30
2023-03-29T23:22:30.249Z,100080.25
2023-03-29T23:25:06.759Z,100087.02
2023-03-29T23:27:35.706Z,100089.48
2023-03-29T23:30:09.158Z,100086.91
2023-03-29T23:32:52.730Z,100084.17
2023-03-29T23:35:48.198Z,100080.77
2023-03-29T23:38:22.584Z,100077.80
2023-03-29T23:41:08.776Z,100082.80
2023-03-29T23:43:50.655Z,100078.38
2023-03-29T23:46:30.004Z,100074.25
2023-03-29T23:49:06.473Z,100076.42
2023-03-29T23:51:48.567Z,100076.26
2023-03-29T23:54:29.505Z,100067.54
2023-03-29T23:57:11.151Z,100064.86
2023-03-29T23:59:49.636Z,100060.94
